Time;durP1;ratioP1;P1;durP2;ratioP2;P2;SDS_P1;SDS_P2;PMS_P1;PMS_P2;Temp;Humidity;BMP_temperature;BMP_pressure;BME280_temperature;BME280_humidity;BME280_pressure;Samples;Min_cycle;Max_cycle;Signal;HPM_P1;HPM_P2
2022/04/14 00:00:27;;;;;;;8.35;7.199999;;;;;;;7.45;64.05176;95089.95;;;;
2022/04/14 00:01:27;;;;;;;8.35;7.199999;;;;;;;7.45;64.05176;95089.95;;;;
2022/04/14 00:02:28;;;;;;;10.85;7.099999;;;;;;;7.41;64.06738;95084.33;;;;
2022/04/14 00:03:28;;;;;;;10.85;7.099999;;;;;;;7.41;64.06738;95084.33;;;;
2022/04/14 00:04:29;;;;;;;10.85;7.099999;;;;;;;7.41;64.06738;95084.33;;;;
2022/04/14 00:05:29;;;;;;;10.85;7.099999;;;;;;;7.41;64.06738;95084.33;;;;
2022/04/14 00:06:29;;;;;;;10.85;7.099999;;;;;;;7.41;64.06738;95084.33;;;;
2022/04/14 00:07:30;;;;;;;10.85;7.099999;;;;;;;7.41;64.06738;95084.33;;;;
2022/04/14 00:08:30;;;;;;;10.85;7.099999;;;;;;;7.41;64.06738;95084.33;;;;
2022/04/14 00:09:31;;;;;;;10.85;7.099999;;;;;;;7.41;64.06738;95084.33;;;;
2022/04/14 00:10:32;;;;;;;10.85;7.099999;;;;;;;7.41;64.06738;95084.33;;;;
2022/04/14 00:11:32;;;;;;;10.85;7.099999;;;;;;;7.41;64.06738;95084.33;;;;
2022/04/14 00:12:33;;;;;;;10.85;7.099999;;;;;;;7.41;64.06738;95084.33;;;;
2022/04/14 00:13:33;;;;;;;10.25;7.65;;;;;;;7.32;64.27832;95098.13;;;;
2022/04/14 00:14:34;;;;;;;10.25;7.65;;;;;;;7.32;64.27832;95098.13;;;;
2022/04/14 00:15:34;;;;;;;10.25;7.65;;;;;;;7.32;64.27832;95098.13;;;;
2022/04/14 00:16:35;;;;;;;10.25;7.65;;;;;;;7.32;64.27832;95098.13;;;;
2022/04/14 00:17:35;;;;;;;10.25;7.65;;;;;;;7.32;64.27832;95098.13;;;;
2022/04/14 00:18:36;;;;;;;10.25;7.65;;;;;;;7.32;64.27832;95098.13;;;;
2022/04/14 00:19:36;;;;;;;10.25;7.65;;;;;;;7.32;64.27832;95098.13;;;;
2022/04/14 00:20:37;;;;;;;10.25;7.65;;;;;;;7.32;64.27832;95098.13;;;;
2022/04/14 00:21:37;;;;;;;10.25;7.65;;;;;;;7.32;64.27832;95098.13;;;;
2022/04/14 00:22:38;;;;;;;10.25;7.65;;;;;;;7.32;64.27832;95098.13;;;;
2022/04/14 00:23:38;;;;;;;10.25;7.65;;;;;;;7.32;64.27832;95098.13;;;;
2022/04/14 00:24:39;;;;;;;12;8.5;;;;;;;7.29;64.96484;95098.58;;;;
2022/04/14 00:25:40;;;;;;;12;8.5;;;;;;;7.29;64.96484;95098.58;;;;
2022/04/14 00:26:40;;;;;;;12;8.5;;;;;;;7.29;64.96484;95098.58;;;;
2022/04/14 00:27:41;;;;;;;12;8.5;;;;;;;7.29;64.96484;95098.58;;;;
2022/04/14 00:28:41;;;;;;;12;8.5;;;;;;;7.29;64.96484;95098.58;;;;
2022/04/14 00:29:42;;;;;;;12;8.5;;;;;;;7.29;64.96484;95098.58;;;;
2022/04/14 00:30:42;;;;;;;12;8.5;;;;;;;7.29;64.96484;95098.58;;;;
2022/04/14 00:31:43;;;;;;;12;8.5;;;;;;;7.29;64.96484;95098.58;;;;
2022/04/14 00:32:44;;;;;;;12;8.5;;;;;;;7.29;64.96484;95098.58;;;;
2022/04/14 00:33:44;;;;;;;12;8.5;;;;;;;7.29;64.96484;95098.58;;;;
2022/04/14 00:34:45;;;;;;;11.05;8.099999;;;;;;;7.19;65.03418;95101.45;;;;
2022/04/14 00:35:45;;;;;;;11.05;8.099999;;;;;;;7.19;65.03418;95101.45;;;;
2022/04/14 00:36:46;;;;;;;11.05;8.099999;;;;;;;7.19;65.03418;95101.45;;;;
2022/04/14 00:37:46;;;;;;;11.05;8.099999;;;;;;;7.19;65.03418;95101.45;;;;
2022/04/14 00:38:46;;;;;;;11.05;8.099999;;;;;;;7.19;65.03418;95101.45;;;;
2022/04/14 00:39:49;;;;;;;11.05;8.099999;;;;;;;7.19;65.03418;95101.45;;;;
2022/04/14 00:40:52;;;;;;;11.05;8.099999;;;;;;;7.19;65.03418;95101.45;;;;
2022/04/14 00:41:53;;;;;;;11.05;8.099999;;;;;;;7.19;65.03418;95101.45;;;;
2022/04/14 00:42:53;;;;;;;11.05;8.099999;;;;;;;7.19;65.03418;95101.45;;;;
2022/04/14 00:43:54;;;;;;;11.05;8.099999;;;;;;;7.19;65.03418;95101.45;;;;
2022/04/14 00:44:54;;;;;;;11.05;8.099999;;;;;;;7.19;65.03418;95101.45;;;;
2022/04/14 00:45:55;;;;;;;10.1;8.8;;;;;;;7.07;65.21973;95104.97;;;;
2022/04/14 00:46:55;;;;;;;10.1;8.8;;;;;;;7.07;65.21973;95104.97;;;;
2022/04/14 00:47:56;;;;;;;10.1;8.8;;;;;;;7.07;65.21973;95104.97;;;;
2022/04/14 00:48:56;;;;;;;10.1;8.8;;;;;;;7.07;65.21973;95104.97;;;;
2022/04/14 00:49:58;;;;;;;10.1;8.8;;;;;;;7.07;65.21973;95104.97;;;;
2022/04/14 00:51:00;;;;;;;10.1;8.8;;;;;;;7.07;65.21973;95104.97;;;;
2022/04/14 00:52:01;;;;;;;10.1;8.8;;;;;;;7.07;65.21973;95104.97;;;;
2022/04/14 00:53:03;;;;;;;10.1;8.8;;;;;;;7.07;65.21973;95104.97;;;;
2022/04/14 00:54:03;;;;;;;10.1;8.8;;;;;;;7.07;65.21973;95104.97;;;;
2022/04/14 00:55:04;;;;;;;10.1;8.8;;;;;;;7.07;65.21973;95104.97;;;;
2022/04/14 00:56:05;;;;;;;12.4;9.35;;;;;;;6.88;65.51074;95105.83;;;;
2022/04/14 00:57:06;;;;;;;12.4;9.35;;;;;;;6.88;65.51074;95105.83;;;;
2022/04/14 00:58:08;;;;;;;12.4;9.35;;;;;;;6.88;65.51074;95105.83;;;;
2022/04/14 00:59:09;;;;;;;12.4;9.35;;;;;;;6.88;65.51074;95105.83;;;;
2022/04/14 01:00:09;;;;;;;12.4;9.35;;;;;;;6.88;65.51074;95105.83;;;;
2022/04/14 01:01:12;;;;;;;12.4;9.35;;;;;;;6.88;65.51074;95105.83;;;;
2022/04/14 01:02:12;;;;;;;12.4;9.35;;;;;;;6.88;65.51074;95105.83;;;;
2022/04/14 01:03:13;;;;;;;12.4;9.35;;;;;;;6.88;65.51074;95105.83;;;;
2022/04/14 01:04:15;;;;;;;12.4;9.35;;;;;;;6.88;65.51074;95105.83;;;;
2022/04/14 01:05:16;;;;;;;12.4;9.35;;;;;;;6.88;65.51074;95105.83;;;;
2022/04/14 01:06:19;;;;;;;12.4;9.35;;;;;;;6.88;65.51074;95105.83;;;;
2022/04/14 01:07:20;;;;;;;11.75;9.65;;;;;;;6.73;65.8916;95112.02;;;;
2022/04/14 01:08:21;;;;;;;11.75;9.65;;;;;;;6.73;65.8916;95112.02;;;;
2022/04/14 01:09:22;;;;;;;11.75;9.65;;;;;;;6.73;65.8916;95112.02;;;;
2022/04/14 01:10:25;;;;;;;11.75;9.65;;;;;;;6.73;65.8916;95112.02;;;;
2022/04/14 01:11:27;;;;;;;11.75;9.65;;;;;;;6.73;65.8916;95112.02;;;;
2022/04/14 01:12:28;;;;;;;11.75;9.65;;;;;;;6.73;65.8916;95112.02;;;;
2022/04/14 01:13:31;;;;;;;11.75;9.65;;;;;;;6.73;65.8916;95112.02;;;;
2022/04/14 01:14:31;;;;;;;11.75;9.65;;;;;;;6.73;65.8916;95112.02;;;;
2022/04/14 01:15:33;;;;;;;11.75;9.65;;;;;;;6.73;65.8916;95112.02;;;;
2022/04/14 01:16:34;;;;;;;11.75;9.65;;;;;;;6.73;65.8916;95112.02;;;;
2022/04/14 01:17:34;;;;;;;14.8;10.8;;;;;;;6.62;66.11914;95119.41;;;;
2022/04/14 01:18:35;;;;;;;14.8;10.8;;;;;;;6.62;66.11914;95119.41;;;;
2022/04/14 01:19:35;;;;;;;14.8;10.8;;;;;;;6.62;66.11914;95119.41;;;;
2022/04/14 01:20:37;;;;;;;14.8;10.8;;;;;;;6.62;66.11914;95119.41;;;;
2022/04/14 01:21:40;;;;;;;14.8;10.8;;;;;;;6.62;66.11914;95119.41;;;;
2022/04/14 01:22:44;;;;;;;14.8;10.8;;;;;;;6.62;66.11914;95119.41;;;;
2022/04/14 01:23:51;;;;;;;14.8;10.8;;;;;;;6.62;66.11914;95119.41;;;;
2022/04/14 01:24:51;;;;;;;14.8;10.8;;;;;;;6.62;66.11914;95119.41;;;;
2022/04/14 01:25:55;;;;;;;14.8;10.8;;;;;;;6.62;66.11914;95119.41;;;;
2022/04/14 01:26:55;;;;;;;14.8;10.8;;;;;;;6.62;66.11914;95119.41;;;;
2022/04/14 01:27:56;;;;;;;14.8;10.8;;;;;;;6.62;66.11914;95119.41;;;;
2022/04/14 01:28:57;;;;;;;13.4;10.25;;;;;;;6.57;66.43945;95117.99;;;;
2022/04/14 01:29:57;;;;;;;13.4;10.25;;;;;;;6.57;66.43945;95117.99;;;;
2022/04/14 01:30:57;;;;;;;13.4;10.25;;;;;;;6.57;66.43945;95117.99;;;;
2022/04/14 01:31:58;;;;;;;13.4;10.25;;;;;;;6.57;66.43945;95117.99;;;;
2022/04/14 01:33:00;;;;;;;13.4;10.25;;;;;;;6.57;66.43945;95117.99;;;;
2022/04/14 01:34:00;;;;;;;13.4;10.25;;;;;;;6.57;66.43945;95117.99;;;;
2022/04/14 01:35:01;;;;;;;13.4;10.25;;;;;;;6.57;66.43945;95117.99;;;;
2022/04/14 01:36:01;;;;;;;13.4;10.25;;;;;;;6.57;66.43945;95117.99;;;;
2022/04/14 01:37:02;;;;;;;13.4;10.25;;;;;;;6.57;66.43945;95117.99;;;;
2022/04/14 01:38:02;;;;;;;13.4;10.25;;;;;;;6.57;66.43945;95117.99;;;;
2022/04/14 01:39:03;;;;;;;12.95;10.75;;;;;;;6.49;66.58594;95123.63;;;;
2022/04/14 01:40:03;;;;;;;12.95;10.75;;;;;;;6.49;66.58594;95123.63;;;;
2022/04/14 01:41:05;;;;;;;12.95;10.75;;;;;;;6.49;66.58594;95123.63;;;;
2022/04/14 01:42:06;;;;;;;12.95;10.75;;;;;;;6.49;66.58594;95123.63;;;;
2022/04/14 01:43:07;;;;;;;12.95;10.75;;;;;;;6.49;66.58594;95123.63;;;;
2022/04/14 01:44:08;;;;;;;12.95;10.75;;;;;;;6.49;66.58594;95123.63;;;;
2022/04/14 01:45:10;;;;;;;12.95;10.75;;;;;;;6.49;66.58594;95123.63;;;;
2022/04/14 01:46:11;;;;;;;12.95;10.75;;;;;;;6.49;66.58594;95123.63;;;;
2022/04/14 01:47:12;;;;;;;12.95;10.75;;;;;;;6.49;66.58594;95123.63;;;;
2022/04/14 01:48:13;;;;;;;12.95;10.75;;;;;;;6.49;66.58594;95123.63;;;;
2022/04/14 01:49:13;;;;;;;12.95;10.75;;;;;;;6.49;66.58594;95123.63;;;;
2022/04/14 01:50:14;;;;;;;14.8;11;;;;;;;6.43;66.7168;95133.76;;;;
2022/04/14 01:51:15;;;;;;;14.8;11;;;;;;;6.43;66.7168;95133.76;;;;
2022/04/14 01:52:15;;;;;;;14.8;11;;;;;;;6.43;66.7168;95133.76;;;;
2022/04/14 01:53:16;;;;;;;14.8;11;;;;;;;6.43;66.7168;95133.76;;;;
2022/04/14 01:54:16;;;;;;;14.8;11;;;;;;;6.43;66.7168;95133.76;;;;
2022/04/14 01:55:17;;;;;;;14.8;11;;;;;;;6.43;66.7168;95133.76;;;;
2022/04/14 01:56:18;;;;;;;14.8;11;;;;;;;6.43;66.7168;95133.76;;;;
2022/04/14 01:57:18;;;;;;;14.8;11;;;;;;;6.43;66.7168;95133.76;;;;
2022/04/14 01:58:19;;;;;;;14.8;11;;;;;;;6.43;66.7168;95133.76;;;;
2022/04/14 01:59:20;;;;;;;14.8;11;;;;;;;6.43;66.7168;95133.76;;;;
2022/04/14 02:00:20;;;;;;;16.8;11.75;;;;;;;6.39;66.91113;95138.02;;;;
2022/04/14 02:01:21;;;;;;;16.8;11.75;;;;;;;6.39;66.91113;95138.02;;;;
2022/04/14 02:02:22;;;;;;;16.8;11.75;;;;;;;6.39;66.91113;95138.02;;;;
2022/04/14 02:03:22;;;;;;;16.8;11.75;;;;;;;6.39;66.91113;95138.02;;;;
2022/04/14 02:04:22;;;;;;;16.8;11.75;;;;;;;6.39;66.91113;95138.02;;;;
2022/04/14 02:05:23;;;;;;;16.8;11.75;;;;;;;6.39;66.91113;95138.02;;;;
2022/04/14 02:06:23;;;;;;;16.8;11.75;;;;;;;6.39;66.91113;95138.02;;;;
2022/04/14 02:07:24;;;;;;;16.8;11.75;;;;;;;6.39;66.91113;95138.02;;;;
2022/04/14 02:08:25;;;;;;;16.8;11.75;;;;;;;6.39;66.91113;95138.02;;;;
2022/04/14 02:09:25;;;;;;;16.8;11.75;;;;;;;6.39;66.91113;95138.02;;;;
2022/04/14 02:10:26;;;;;;;16.8;11.75;;;;;;;6.39;66.91113;95138.02;;;;
2022/04/14 02:11:26;;;;;;;15.45;11.15;;;;;;;6.35;67.11816;95141.24;;;;
2022/04/14 02:12:27;;;;;;;15.45;11.15;;;;;;;6.35;67.11816;95141.24;;;;
2022/04/14 02:13:27;;;;;;;15.45;11.15;;;;;;;6.35;67.11816;95141.24;;;;
2022/04/14 02:14:29;;;;;;;15.45;11.15;;;;;;;6.35;67.11816;95141.24;;;;
2022/04/14 02:15:30;;;;;;;15.45;11.15;;;;;;;6.35;67.11816;95141.24;;;;
2022/04/14 02:16:31;;;;;;;15.45;11.15;;;;;;;6.35;67.11816;95141.24;;;;
2022/04/14 02:17:31;;;;;;;15.45;11.15;;;;;;;6.35;67.11816;95141.24;;;;
2022/04/14 02:18:31;;;;;;;15.45;11.15;;;;;;;6.35;67.11816;95141.24;;;;
2022/04/14 02:19:32;;;;;;;15.45;11.15;;;;;;;6.35;67.11816;95141.24;;;;
2022/04/14 02:20:32;;;;;;;15.45;11.15;;;;;;;6.35;67.11816;95141.24;;;;
2022/04/14 02:21:33;;;;;;;14.65;11.15;;;;;;;6.32;67.2832;95135.77;;;;
2022/04/14 02:22:33;;;;;;;14.65;11.15;;;;;;;6.32;67.2832;95135.77;;;;
2022/04/14 02:23:37;;;;;;;14.65;11.15;;;;;;;6.32;67.2832;95135.77;;;;
2022/04/14 02:24:38;;;;;;;14.65;11.15;;;;;;;6.32;67.2832;95135.77;;;;
2022/04/14 02:25:38;;;;;;;14.65;11.15;;;;;;;6.32;67.2832;95135.77;;;;
2022/04/14 02:26:39;;;;;;;14.65;11.15;;;;;;;6.32;67.2832;95135.77;;;;
2022/04/14 02:27:39;;;;;;;14.65;11.15;;;;;;;6.32;67.2832;95135.77;;;;
2022/04/14 02:28:40;;;;;;;14.65;11.15;;;;;;;6.32;67.2832;95135.77;;;;
2022/04/14 02:29:41;;;;;;;14.65;11.15;;;;;;;6.32;67.2832;95135.77;;;;
2022/04/14 02:30:41;;;;;;;14.65;11.15;;;;;;;6.32;67.2832;95135.77;;;;
2022/04/14 02:31:42;;;;;;;14.65;11.15;;;;;;;6.32;67.2832;95135.77;;;;
2022/04/14 02:32:43;;;;;;;15.1;11.9;;;;;;;6.29;67.4502;95131.27;;;;
2022/04/14 02:33:44;;;;;;;15.1;11.9;;;;;;;6.29;67.4502;95131.27;;;;
2022/04/14 02:34:44;;;;;;;15.1;11.9;;;;;;;6.29;67.4502;95131.27;;;;
2022/04/14 02:35:45;;;;;;;15.1;11.9;;;;;;;6.29;67.4502;95131.27;;;;
2022/04/14 02:36:46;;;;;;;15.1;11.9;;;;;;;6.29;67.4502;95131.27;;;;
2022/04/14 02:37:46;;;;;;;15.1;11.9;;;;;;;6.29;67.4502;95131.27;;;;
2022/04/14 02:38:47;;;;;;;15.1;11.9;;;;;;;6.29;67.4502;95131.27;;;;
2022/04/14 02:39:47;;;;;;;15.1;11.9;;;;;;;6.29;67.4502;95131.27;;;;
2022/04/14 02:40:48;;;;;;;15.1;11.9;;;;;;;6.29;67.4502;95131.27;;;;
2022/04/14 02:41:48;;;;;;;15.1;11.9;;;;;;;6.29;67.4502;95131.27;;;;
2022/04/14 02:42:49;;;;;;;15.1;11.9;;;;;;;6.29;67.4502;95131.27;;;;
2022/04/14 02:43:50;;;;;;;15.1;11.9;;;;;;;6.29;67.4502;95131.27;;;;
2022/04/14 02:44:50;;;;;;;15.1;11.9;;;;;;;6.29;67.4502;95131.27;;;;
2022/04/14 02:45:51;;;;;;;15.1;11.9;;;;;;;6.29;67.4502;95131.27;;;;
2022/04/14 02:46:51;;;;;;;15.1;11.9;;;;;;;6.29;67.4502;95131.27;;;;
2022/04/14 02:47:52;;;;;;;15.1;11.9;;;;;;;6.29;67.4502;95131.27;;;;
2022/04/14 02:48:53;;;;;;;15.1;11.9;;;;;;;6.29;67.4502;95131.27;;;;
2022/04/14 02:49:53;;;;;;;15.1;11.9;;;;;;;6.29;67.4502;95131.27;;;;
2022/04/14 02:50:54;;;;;;;15.1;11.9;;;;;;;6.29;67.4502;95131.27;;;;
2022/04/14 02:51:54;;;;;;;15.1;11.9;;;;;;;6.29;67.4502;95131.27;;;;
2022/04/14 02:52:55;;;;;;;15.1;11.9;;;;;;;6.29;67.4502;95131.27;;;;
2022/04/14 02:53:55;;;;;;;19.45;12.5;;;;;;;6.26;67.85742;95138.49;;;;
2022/04/14 02:54:56;;;;;;;19.45;12.5;;;;;;;6.26;67.85742;95138.49;;;;
2022/04/14 02:55:56;;;;;;;19.45;12.5;;;;;;;6.26;67.85742;95138.49;;;;
2022/04/14 02:56:57;;;;;;;19.45;12.5;;;;;;;6.26;67.85742;95138.49;;;;
2022/04/14 02:57:57;;;;;;;19.45;12.5;;;;;;;6.26;67.85742;95138.49;;;;
2022/04/14 02:58:58;;;;;;;19.45;12.5;;;;;;;6.26;67.85742;95138.49;;;;
2022/04/14 02:59:58;;;;;;;19.45;12.5;;;;;;;6.26;67.85742;95138.49;;;;
2022/04/14 03:00:59;;;;;;;19.45;12.5;;;;;;;6.26;67.85742;95138.49;;;;
2022/04/14 03:01:59;;;;;;;19.45;12.5;;;;;;;6.26;67.85742;95138.49;;;;
2022/04/14 03:03:01;;;;;;;19.45;12.5;;;;;;;6.26;67.85742;95138.49;;;;
2022/04/14 03:04:01;;;;;;;19.45;12.5;;;;;;;6.26;67.85742;95138.49;;;;
2022/04/14 03:05:02;;;;;;;16.9;12.5;;;;;;;6.21;68.09375;95143.13;;;;
2022/04/14 03:06:03;;;;;;;16.9;12.5;;;;;;;6.21;68.09375;95143.13;;;;
2022/04/14 03:07:04;;;;;;;16.9;12.5;;;;;;;6.21;68.09375;95143.13;;;;
2022/04/14 03:08:05;;;;;;;16.9;12.5;;;;;;;6.21;68.09375;95143.13;;;;
2022/04/14 03:09:06;;;;;;;16.9;12.5;;;;;;;6.21;68.09375;95143.13;;;;
2022/04/14 03:10:07;;;;;;;16.9;12.5;;;;;;;6.21;68.09375;95143.13;;;;
2022/04/14 03:11:08;;;;;;;16.9;12.5;;;;;;;6.21;68.09375;95143.13;;;;
2022/04/14 03:12:09;;;;;;;16.9;12.5;;;;;;;6.21;68.09375;95143.13;;;;
2022/04/14 03:13:10;;;;;;;16.9;12.5;;;;;;;6.21;68.09375;95143.13;;;;
2022/04/14 03:14:10;;;;;;;16.9;12.5;;;;;;;6.21;68.09375;95143.13;;;;
2022/04/14 03:15:11;;;;;;;17.05;12.1;;;;;;;6.14;68.31641;95144.09;;;;
2022/04/14 03:16:12;;;;;;;17.05;12.1;;;;;;;6.14;68.31641;95144.09;;;;
2022/04/14 03:17:13;;;;;;;17.05;12.1;;;;;;;6.14;68.31641;95144.09;;;;
2022/04/14 03:18:13;;;;;;;17.05;12.1;;;;;;;6.14;68.31641;95144.09;;;;
2022/04/14 03:19:14;;;;;;;17.05;12.1;;;;;;;6.14;68.31641;95144.09;;;;
2022/04/14 03:20:14;;;;;;;17.05;12.1;;;;;;;6.14;68.31641;95144.09;;;;
2022/04/14 03:21:15;;;;;;;17.05;12.1;;;;;;;6.14;68.31641;95144.09;;;;
2022/04/14 03:22:15;;;;;;;17.05;12.1;;;;;;;6.14;68.31641;95144.09;;;;
2022/04/14 03:23:16;;;;;;;17.05;12.1;;;;;;;6.14;68.31641;95144.09;;;;
2022/04/14 03:24:16;;;;;;;17.05;12.1;;;;;;;6.14;68.31641;95144.09;;;;
2022/04/14 03:25:17;;;;;;;17.05;12.1;;;;;;;6.14;68.31641;95144.09;;;;
2022/04/14 03:26:17;;;;;;;16.45;12.35;;;;;;;6.08;68.57129;95151.76;;;;
2022/04/14 03:27:18;;;;;;;16.45;12.35;;;;;;;6.08;68.57129;95151.76;;;;
2022/04/14 03:28:18;;;;;;;16.45;12.35;;;;;;;6.08;68.57129;95151.76;;;;
2022/04/14 03:29:19;;;;;;;16.45;12.35;;;;;;;6.08;68.57129;95151.76;;;;
2022/04/14 03:30:19;;;;;;;16.45;12.35;;;;;;;6.08;68.57129;95151.76;;;;
2022/04/14 03:31:20;;;;;;;16.45;12.35;;;;;;;6.08;68.57129;95151.76;;;;
2022/04/14 03:32:22;;;;;;;16.45;12.35;;;;;;;6.08;68.57129;95151.76;;;;
2022/04/14 03:33:22;;;;;;;16.45;12.35;;;;;;;6.08;68.57129;95151.76;;;;
2022/04/14 03:34:23;;;;;;;16.45;12.35;;;;;;;6.08;68.57129;95151.76;;;;
2022/04/14 03:35:23;;;;;;;16.45;12.35;;;;;;;6.08;68.57129;95151.76;;;;
2022/04/14 03:36:23;;;;;;;17.35;12.8;;;;;;;6;68.87793;95159.09;;;;
2022/04/14 03:37:24;;;;;;;17.35;12.8;;;;;;;6;68.87793;95159.09;;;;
2022/04/14 03:38:24;;;;;;;17.35;12.8;;;;;;;6;68.87793;95159.09;;;;
2022/04/14 03:39:25;;;;;;;17.35;12.8;;;;;;;6;68.87793;95159.09;;;;
2022/04/14 03:40:26;;;;;;;17.35;12.8;;;;;;;6;68.87793;95159.09;;;;
2022/04/14 03:41:26;;;;;;;17.35;12.8;;;;;;;6;68.87793;95159.09;;;;
2022/04/14 03:42:27;;;;;;;17.35;12.8;;;;;;;6;68.87793;95159.09;;;;
2022/04/14 03:43:27;;;;;;;17.35;12.8;;;;;;;6;68.87793;95159.09;;;;
2022/04/14 03:44:28;;;;;;;17.35;12.8;;;;;;;6;68.87793;95159.09;;;;
2022/04/14 03:45:28;;;;;;;17.35;12.8;;;;;;;6;68.87793;95159.09;;;;
2022/04/14 03:46:31;;;;;;;17.35;12.8;;;;;;;6;68.87793;95159.09;;;;
2022/04/14 03:47:31;;;;;;;18.25;12.6;;;;;;;5.97;69;95172;;;;
2022/04/14 03:48:32;;;;;;;18.25;12.6;;;;;;;5.97;69;95172;;;;
2022/04/14 03:49:33;;;;;;;18.25;12.6;;;;;;;5.97;69;95172;;;;
2022/04/14 03:50:33;;;;;;;18.25;12.6;;;;;;;5.97;69;95172;;;;
2022/04/14 03:51:34;;;;;;;18.25;12.6;;;;;;;5.97;69;95172;;;;
2022/04/14 03:52:34;;;;;;;18.25;12.6;;;;;;;5.97;69;95172;;;;
2022/04/14 03:53:35;;;;;;;18.25;12.6;;;;;;;5.97;69;95172;;;;
2022/04/14 03:54:35;;;;;;;18.25;12.6;;;;;;;5.97;69;95172;;;;
2022/04/14 03:55:36;;;;;;;18.25;12.6;;;;;;;5.97;69;95172;;;;
2022/04/14 03:56:36;;;;;;;18.25;12.6;;;;;;;5.97;69;95172;;;;
2022/04/14 03:57:37;;;;;;;17.15;12.85;;;;;;;5.93;69.05664;95179.3;;;;
2022/04/14 03:58:37;;;;;;;17.15;12.85;;;;;;;5.93;69.05664;95179.3;;;;
2022/04/14 03:59:38;;;;;;;17.15;12.85;;;;;;;5.93;69.05664;95179.3;;;;
2022/04/14 04:00:38;;;;;;;17.15;12.85;;;;;;;5.93;69.05664;95179.3;;;;
2022/04/14 04:01:39;;;;;;;17.15;12.85;;;;;;;5.93;69.05664;95179.3;;;;
2022/04/14 04:02:39;;;;;;;17.15;12.85;;;;;;;5.93;69.05664;95179.3;;;;
2022/04/14 04:03:40;;;;;;;17.15;12.85;;;;;;;5.93;69.05664;95179.3;;;;
2022/04/14 04:04:40;;;;;;;17.15;12.85;;;;;;;5.93;69.05664;95179.3;;;;
2022/04/14 04:05:41;;;;;;;17.15;12.85;;;;;;;5.93;69.05664;95179.3;;;;
2022/04/14 04:06:41;;;;;;;17.15;12.85;;;;;;;5.93;69.05664;95179.3;;;;
2022/04/14 04:07:42;;;;;;;17.15;12.85;;;;;;;5.93;69.05664;95179.3;;;;
2022/04/14 04:08:42;;;;;;;16.9;12.9;;;;;;;5.88;69.17773;95180.33;;;;
2022/04/14 04:09:43;;;;;;;16.9;12.9;;;;;;;5.88;69.17773;95180.33;;;;
2022/04/14 04:10:43;;;;;;;16.9;12.9;;;;;;;5.88;69.17773;95180.33;;;;
2022/04/14 04:11:44;;;;;;;16.9;12.9;;;;;;;5.88;69.17773;95180.33;;;;
2022/04/14 04:12:44;;;;;;;16.9;12.9;;;;;;;5.88;69.17773;95180.33;;;;
2022/04/14 04:13:45;;;;;;;16.9;12.9;;;;;;;5.88;69.17773;95180.33;;;;
2022/04/14 04:14:45;;;;;;;16.9;12.9;;;;;;;5.88;69.17773;95180.33;;;;
2022/04/14 04:15:46;;;;;;;16.9;12.9;;;;;;;5.88;69.17773;95180.33;;;;
2022/04/14 04:16:46;;;;;;;16.9;12.9;;;;;;;5.88;69.17773;95180.33;;;;
2022/04/14 04:17:47;;;;;;;16.9;12.9;;;;;;;5.88;69.17773;95180.33;;;;
2022/04/14 04:18:47;;;;;;;16.9;12.9;;;;;;;5.88;69.17773;95180.33;;;;
2022/04/14 04:19:48;;;;;;;21.2;13.75;;;;;;;5.87;69.32324;95189.51;;;;
2022/04/14 04:20:48;;;;;;;21.2;13.75;;;;;;;5.87;69.32324;95189.51;;;;
2022/04/14 04:21:49;;;;;;;21.2;13.75;;;;;;;5.87;69.32324;95189.51;;;;
2022/04/14 04:22:49;;;;;;;21.2;13.75;;;;;;;5.87;69.32324;95189.51;;;;
2022/04/14 04:23:50;;;;;;;21.2;13.75;;;;;;;5.87;69.32324;95189.51;;;;
2022/04/14 04:24:50;;;;;;;21.2;13.75;;;;;;;5.87;69.32324;95189.51;;;;
2022/04/14 04:25:51;;;;;;;21.2;13.75;;;;;;;5.87;69.32324;95189.51;;;;
2022/04/14 04:26:52;;;;;;;21.2;13.75;;;;;;;5.87;69.32324;95189.51;;;;
2022/04/14 04:27:53;;;;;;;21.2;13.75;;;;;;;5.87;69.32324;95189.51;;;;
2022/04/14 04:28:53;;;;;;;21.2;13.75;;;;;;;5.87;69.32324;95189.51;;;;
2022/04/14 04:29:54;;;;;;;18.45;12.8;;;;;;;5.85;69.47949;95204.05;;;;
2022/04/14 04:30:54;;;;;;;18.45;12.8;;;;;;;5.85;69.47949;95204.05;;;;
2022/04/14 04:31:54;;;;;;;18.45;12.8;;;;;;;5.85;69.47949;95204.05;;;;
2022/04/14 04:32:55;;;;;;;18.45;12.8;;;;;;;5.85;69.47949;95204.05;;;;
2022/04/14 04:33:56;;;;;;;18.45;12.8;;;;;;;5.85;69.47949;95204.05;;;;
2022/04/14 04:34:56;;;;;;;18.45;12.8;;;;;;;5.85;69.47949;95204.05;;;;
2022/04/14 04:35:56;;;;;;;18.45;12.8;;;;;;;5.85;69.47949;95204.05;;;;
2022/04/14 04:36:57;;;;;;;18.45;12.8;;;;;;;5.85;69.47949;95204.05;;;;
2022/04/14 04:37:57;;;;;;;18.45;12.8;;;;;;;5.85;69.47949;95204.05;;;;
2022/04/14 04:39:01;;;;;;;18.45;12.8;;;;;;;5.85;69.47949;95204.05;;;;
2022/04/14 04:40:02;;;;;;;18.45;12.8;;;;;;;5.85;69.47949;95204.05;;;;
2022/04/14 04:41:03;;;;;;;19.3;13;;;;;;;5.83;69.59277;95206.94;;;;
2022/04/14 04:42:04;;;;;;;19.3;13;;;;;;;5.83;69.59277;95206.94;;;;
2022/04/14 04:43:06;;;;;;;19.3;13;;;;;;;5.83;69.59277;95206.94;;;;
2022/04/14 04:44:06;;;;;;;19.3;13;;;;;;;5.83;69.59277;95206.94;;;;
2022/04/14 04:45:07;;;;;;;19.3;13;;;;;;;5.83;69.59277;95206.94;;;;
2022/04/14 04:46:08;;;;;;;19.3;13;;;;;;;5.83;69.59277;95206.94;;;;
2022/04/14 04:47:09;;;;;;;19.3;13;;;;;;;5.83;69.59277;95206.94;;;;
2022/04/14 04:48:09;;;;;;;19.3;13;;;;;;;5.83;69.59277;95206.94;;;;
2022/04/14 04:49:10;;;;;;;19.3;13;;;;;;;5.83;69.59277;95206.94;;;;
2022/04/14 04:50:10;;;;;;;19.3;13;;;;;;;5.83;69.59277;95206.94;;;;
2022/04/14 04:51:11;;;;;;;21.15;13.15;;;;;;;5.87;69.68359;95213.53;;;;
2022/04/14 04:52:11;;;;;;;21.15;13.15;;;;;;;5.87;69.68359;95213.53;;;;
2022/04/14 04:53:12;;;;;;;21.15;13.15;;;;;;;5.87;69.68359;95213.53;;;;
2022/04/14 04:54:12;;;;;;;21.15;13.15;;;;;;;5.87;69.68359;95213.53;;;;
2022/04/14 04:55:13;;;;;;;21.15;13.15;;;;;;;5.87;69.68359;95213.53;;;;
2022/04/14 04:56:13;;;;;;;21.15;13.15;;;;;;;5.87;69.68359;95213.53;;;;
2022/04/14 04:57:14;;;;;;;21.15;13.15;;;;;;;5.87;69.68359;95213.53;;;;
2022/04/14 04:58:14;;;;;;;21.15;13.15;;;;;;;5.87;69.68359;95213.53;;;;
2022/04/14 04:59:15;;;;;;;21.15;13.15;;;;;;;5.87;69.68359;95213.53;;;;
2022/04/14 05:00:15;;;;;;;21.15;13.15;;;;;;;5.87;69.68359;95213.53;;;;
2022/04/14 05:01:16;;;;;;;21.15;13.15;;;;;;;5.87;69.68359;95213.53;;;;
2022/04/14 05:02:16;;;;;;;18.3;13.25;;;;;;;5.98;69.69141;95220.94;;;;
2022/04/14 05:03:17;;;;;;;18.3;13.25;;;;;;;5.98;69.69141;95220.94;;;;
2022/04/14 05:04:17;;;;;;;18.3;13.25;;;;;;;5.98;69.69141;95220.94;;;;
2022/04/14 05:05:18;;;;;;;18.3;13.25;;;;;;;5.98;69.69141;95220.94;;;;
2022/04/14 05:06:19;;;;;;;18.3;13.25;;;;;;;5.98;69.69141;95220.94;;;;
2022/04/14 05:07:19;;;;;;;18.3;13.25;;;;;;;5.98;69.69141;95220.94;;;;
2022/04/14 05:08:20;;;;;;;18.3;13.25;;;;;;;5.98;69.69141;95220.94;;;;
2022/04/14 05:09:23;;;;;;;18.3;13.25;;;;;;;5.98;69.69141;95220.94;;;;
2022/04/14 05:10:24;;;;;;;18.3;13.25;;;;;;;5.98;69.69141;95220.94;;;;
2022/04/14 05:11:24;;;;;;;18.3;13.25;;;;;;;5.98;69.69141;95220.94;;;;
2022/04/14 05:12:25;;;;;;;18.3;13.25;;;;;;;5.98;69.69141;95220.94;;;;
2022/04/14 05:13:25;;;;;;;16;12.85;;;;;;;6.09;69.84766;95224.83;;;;
2022/04/14 05:14:26;;;;;;;16;12.85;;;;;;;6.09;69.84766;95224.83;;;;
2022/04/14 05:15:26;;;;;;;16;12.85;;;;;;;6.09;69.84766;95224.83;;;;
2022/04/14 05:16:27;;;;;;;16;12.85;;;;;;;6.09;69.84766;95224.83;;;;
2022/04/14 05:17:28;;;;;;;16;12.85;;;;;;;6.09;69.84766;95224.83;;;;
2022/04/14 05:18:28;;;;;;;16;12.85;;;;;;;6.09;69.84766;95224.83;;;;
2022/04/14 05:19:29;;;;;;;16;12.85;;;;;;;6.09;69.84766;95224.83;;;;
2022/04/14 05:20:29;;;;;;;16;12.85;;;;;;;6.09;69.84766;95224.83;;;;
2022/04/14 05:21:30;;;;;;;16;12.85;;;;;;;6.09;69.84766;95224.83;;;;
2022/04/14 05:22:30;;;;;;;16;12.85;;;;;;;6.09;69.84766;95224.83;;;;
2022/04/14 05:23:31;;;;;;;17.65;13.25;;;;;;;6.34;69.9082;95229.39;;;;
2022/04/14 05:24:31;;;;;;;17.65;13.25;;;;;;;6.34;69.9082;95229.39;;;;
2022/04/14 05:25:32;;;;;;;17.65;13.25;;;;;;;6.34;69.9082;95229.39;;;;
2022/04/14 05:26:33;;;;;;;17.65;13.25;;;;;;;6.34;69.9082;95229.39;;;;
2022/04/14 05:27:33;;;;;;;17.65;13.25;;;;;;;6.34;69.9082;95229.39;;;;
2022/04/14 05:28:34;;;;;;;17.65;13.25;;;;;;;6.34;69.9082;95229.39;;;;
2022/04/14 05:29:36;;;;;;;17.65;13.25;;;;;;;6.34;69.9082;95229.39;;;;
2022/04/14 05:30:36;;;;;;;17.65;13.25;;;;;;;6.34;69.9082;95229.39;;;;
2022/04/14 05:31:37;;;;;;;17.65;13.25;;;;;;;6.34;69.9082;95229.39;;;;
2022/04/14 05:32:38;;;;;;;17.65;13.25;;;;;;;6.34;69.9082;95229.39;;;;
2022/04/14 05:33:39;;;;;;;17.65;13.25;;;;;;;6.34;69.9082;95229.39;;;;
2022/04/14 05:34:39;;;;;;;19.1;13.7;;;;;;;6.59;69.95996;95239.22;;;;
2022/04/14 05:35:40;;;;;;;19.1;13.7;;;;;;;6.59;69.95996;95239.22;;;;
2022/04/14 05:36:41;;;;;;;19.1;13.7;;;;;;;6.59;69.95996;95239.22;;;;
2022/04/14 05:37:41;;;;;;;19.1;13.7;;;;;;;6.59;69.95996;95239.22;;;;
2022/04/14 05:38:42;;;;;;;19.1;13.7;;;;;;;6.59;69.95996;95239.22;;;;
2022/04/14 05:39:42;;;;;;;19.1;13.7;;;;;;;6.59;69.95996;95239.22;;;;
2022/04/14 05:40:45;;;;;;;19.1;13.7;;;;;;;6.59;69.95996;95239.22;;;;
2022/04/14 05:41:46;;;;;;;19.1;13.7;;;;;;;6.59;69.95996;95239.22;;;;
2022/04/14 05:42:46;;;;;;;19.1;13.7;;;;;;;6.59;69.95996;95239.22;;;;
2022/04/14 05:43:48;;;;;;;19.1;13.7;;;;;;;6.59;69.95996;95239.22;;;;
2022/04/14 05:44:48;;;;;;;18.6;13.75;;;;;;;7.07;70.02637;95240.92;;;;
2022/04/14 05:45:49;;;;;;;18.6;13.75;;;;;;;7.07;70.02637;95240.92;;;;
2022/04/14 05:46:50;;;;;;;18.6;13.75;;;;;;;7.07;70.02637;95240.92;;;;